Nanaimo, Canada
Current Conditions -  °F | °C
As of 8:00 AM on Wednesday 22 Oct 2014 (Local Time) from CYCD Reporting Station
Few Clouds Few Clouds  
Wind Chill: 52°   Ceiling: Unl
Heat Index: 52°   Visibility: 20mi
Dew Point: 50°   Wind: 3mph
Humidity: 94%   Direction: 360°N
Pressure: 29.6"   Gusts: NA
Location:  49.16°N, 123.94°W
Report Text: CYCD 221500Z 36003KT 20SM FEW035TCU FEW070 11/10 A2960 RMK TCU1AC1 SLP023
Loading
Personal Weather Stations






























Interactive Weather Map
Tropical Storm Tracking
New forecast layout! Learn more

10-Day Weather Forecast

Advertisements
Track Severe Weather on mobile